createdAt,value
2017-09-19T00:00:50.531Z,81.00
2017-09-19T00:03:18.153Z,81.10
2017-09-19T00:05:45.739Z,81.10
2017-09-19T00:08:13.371Z,81.20
2017-09-19T00:10:40.962Z,81.50
2017-09-19T00:13:08.529Z,82.30
2017-09-19T00:15:36.141Z,82.10
2017-09-19T00:18:03.766Z,82.10
2017-09-19T00:20:31.326Z,82.10
2017-09-19T00:22:58.950Z,82.00
2017-09-19T00:25:26.540Z,82.10
2017-09-19T00:27:54.106Z,81.90
2017-09-19T00:30:21.716Z,82.30
2017-09-19T00:32:49.281Z,82.10
2017-09-19T00:35:16.878Z,82.60
2017-09-19T00:37:44.460Z,82.20
2017-09-19T00:40:12.084Z,82.00
2017-09-19T00:42:39.648Z,82.00
2017-09-19T00:45:07.245Z,82.20
2017-09-19T00:47:34.799Z,82.70
2017-09-19T00:50:02.495Z,82.60
2017-09-19T00:52:30.057Z,83.20
2017-09-19T00:54:57.662Z,82.40
2017-09-19T00:57:25.271Z,83.10
2017-09-19T00:59:52.850Z,83.00
2017-09-19T01:02:20.470Z,82.50
2017-09-19T01:04:48.050Z,82.10
2017-09-19T01:07:15.622Z,82.30
2017-09-19T01:09:43.241Z,82.40
2017-09-19T01:12:10.891Z,82.70
2017-09-19T01:14:38.445Z,82.20
2017-09-19T01:17:06.026Z,81.90
2017-09-19T01:19:33.675Z,82.90
2017-09-19T01:22:01.277Z,82.60
2017-09-19T01:24:28.911Z,82.30
2017-09-19T01:26:56.490Z,82.60
2017-09-19T01:29:24.882Z,82.50
2017-09-19T01:31:52.469Z,82.30
2017-09-19T01:34:20.050Z,82.00
2017-09-19T01:36:47.658Z,82.20
2017-09-19T01:39:15.259Z,82.00
2017-09-19T01:41:42.822Z,82.70
2017-09-19T01:44:10.434Z,82.30
2017-09-19T01:46:38.786Z,83.00
2017-09-19T01:49:06.398Z,83.00
2017-09-19T01:51:33.969Z,82.90
2017-09-19T01:54:01.530Z,82.30
2017-09-19T01:56:29.131Z,82.00
2017-09-19T01:58:56.711Z,79.90
2017-09-19T02:01:24.344Z,79.20
2017-09-19T02:03:51.937Z,79.60
2017-09-19T02:06:20.370Z,81.00
2017-09-19T02:08:47.972Z,80.80
2017-09-19T02:11:16.330Z,80.80
2017-09-19T02:13:43.971Z,80.60
2017-09-19T02:16:11.553Z,81.00
2017-09-19T02:18:39.145Z,81.30
2017-09-19T02:21:06.776Z,81.00
2017-09-19T02:23:34.397Z,80.90
2017-09-19T02:26:01.974Z,81.40
2017-09-19T02:28:29.603Z,81.50
2017-09-19T02:30:57.224Z,80.90
2017-09-19T02:33:24.802Z,81.20
2017-09-19T02:35:52.390Z,81.20
2017-09-19T02:38:20.014Z,81.10
2017-09-19T02:40:47.641Z,81.00
2017-09-19T02:43:15.238Z,81.50
2017-09-19T02:45:42.869Z,80.90
2017-09-19T02:48:10.470Z,81.60
2017-09-19T02:50:38.811Z,82.40
2017-09-19T02:53:06.439Z,82.20
2017-09-19T02:55:34.074Z,82.10
2017-09-19T02:58:02.423Z,82.00
2017-09-19T03:00:30.053Z,81.80
2017-09-19T03:02:57.617Z,82.30
2017-09-19T03:05:25.199Z,82.10
2017-09-19T03:07:52.840Z,82.30
2017-09-19T03:10:20.412Z,82.10
2017-09-19T03:12:48.039Z,81.50
2017-09-19T03:15:15.674Z,81.80
2017-09-19T03:17:43.246Z,82.20
2017-09-19T03:20:11.602Z,82.20
2017-09-19T03:22:39.224Z,82.30
2017-09-19T03:25:06.799Z,81.60
2017-09-19T03:27:34.434Z,81.30
2017-09-19T03:30:02.062Z,81.10
2017-09-19T03:32:29.724Z,80.30
2017-09-19T03:34:58.096Z,80.90
2017-09-19T03:37:25.725Z,80.70
2017-09-19T03:39:53.339Z,80.00
2017-09-19T03:42:21.686Z,81.50
2017-09-19T03:44:49.301Z,81.40
2017-09-19T03:47:16.869Z,81.70
2017-09-19T03:49:44.473Z,81.60
2017-09-19T03:52:12.091Z,82.30
2017-09-19T03:54:39.705Z,82.20
2017-09-19T03:57:07.358Z,82.20
2017-09-19T03:59:34.996Z,82.30
2017-09-19T04:02:02.596Z,82.40
2017-09-19T04:04:30.985Z,82.50
2017-09-19T04:06:59.376Z,82.60
2017-09-19T04:09:26.946Z,82.40
2017-09-19T04:11:54.555Z,82.00
2017-09-19T04:14:22.126Z,81.80
2017-09-19T04:16:49.729Z,81.00
2017-09-19T04:19:17.347Z,81.80
2017-09-19T04:21:44.937Z,80.30
2017-09-19T04:24:12.561Z,80.70
2017-09-19T04:26:40.158Z,80.70
2017-09-19T04:29:08.549Z,80.10
2017-09-19T04:31:36.111Z,80.00
2017-09-19T04:34:03.685Z,78.70
2017-09-19T04:36:31.306Z,78.00
2017-09-19T04:38:58.950Z,78.90
2017-09-19T04:41:26.525Z,79.70
2017-09-19T04:43:54.192Z,81.30
2017-09-19T04:46:21.905Z,83.50
2017-09-19T04:48:49.678Z,83.60
2017-09-19T04:51:17.443Z,84.70
2017-09-19T04:53:45.366Z,84.80
2017-09-19T04:56:13.246Z,86.80
2017-09-19T04:58:41.135Z,87.50
2017-09-19T05:01:09.497Z,88.20
2017-09-19T05:03:37.104Z,87.80
2017-09-19T05:06:04.881Z,88.10
2017-09-19T05:08:32.782Z,89.00
2017-09-19T05:11:00.627Z,88.60
2017-09-19T05:13:28.445Z,87.90
2017-09-19T05:15:56.220Z,87.00
2017-09-19T05:18:23.813Z,87.70
2017-09-19T05:20:51.666Z,86.90
2017-09-19T05:23:19.524Z,86.70
2017-09-19T05:25:47.142Z,87.30
2017-09-19T05:28:14.779Z,86.70
2017-09-19T05:30:42.474Z,87.20
2017-09-19T05:33:10.224Z,88.40
2017-09-19T05:35:37.939Z,87.70
2017-09-19T05:38:05.665Z,86.20
2017-09-19T05:40:33.293Z,86.90
2017-09-19T05:43:01.002Z,88.20
2017-09-19T05:45:29.074Z,86.20
2017-09-19T05:47:56.730Z,84.80
2017-09-19T05:50:24.373Z,83.40
2017-09-19T05:52:52.753Z,84.10
2017-09-19T05:55:20.374Z,84.10
2017-09-19T05:57:48.040Z,85.70
2017-09-19T06:00:15.657Z,85.30
2017-09-19T06:02:43.354Z,86.10
2017-09-19T06:05:10.985Z,83.00
2017-09-19T06:07:38.558Z,85.80
2017-09-19T06:10:06.162Z,86.10
2017-09-19T06:12:33.791Z,85.90
2017-09-19T06:15:01.370Z,83.60
2017-09-19T06:17:28.948Z,82.90
2017-09-19T06:19:56.572Z,84.20
2017-09-19T06:22:24.147Z,83.30
2017-09-19T06:24:51.801Z,84.30
2017-09-19T06:27:19.433Z,85.60
2017-09-19T06:29:47.003Z,86.50
2017-09-19T06:32:14.610Z,86.70
2017-09-19T06:34:42.237Z,87.60
2017-09-19T06:37:09.818Z,86.60
2017-09-19T06:39:37.449Z,86.10
2017-09-19T06:42:05.379Z,82.10
2017-09-19T06:44:33.719Z,79.40
2017-09-19T06:47:01.307Z,79.40
2017-09-19T06:49:28.968Z,81.10
2017-09-19T06:51:56.597Z,80.40
2017-09-19T06:54:24.207Z,82.40
2017-09-19T06:56:52.901Z,80.10
2017-09-19T06:59:21.278Z,81.00
2017-09-19T07:01:49.642Z,80.90
2017-09-19T07:04:17.215Z,80.80
2017-09-19T07:06:45.674Z,83.90
2017-09-19T07:09:13.248Z,83.80
2017-09-19T07:11:40.805Z,81.10
2017-09-19T07:14:10.217Z,83.00
2017-09-19T07:16:37.910Z,82.30
2017-09-19T07:19:05.486Z,80.80
2017-09-19T07:21:33.068Z,80.00
2017-09-19T07:24:00.674Z,80.30
2017-09-19T07:26:28.458Z,79.80
2017-09-19T07:28:56.107Z,80.50
2017-09-19T07:31:23.767Z,80.60
2017-09-19T07:33:52.115Z,79.80
2017-09-19T07:36:20.471Z,81.20
2017-09-19T07:38:48.073Z,79.50
2017-09-19T07:41:15.751Z,79.10
2017-09-19T07:43:43.923Z,79.60
2017-09-19T07:46:11.987Z,79.00
2017-09-19T07:48:41.466Z,79.60
2017-09-19T07:51:10.431Z,79.90
2017-09-19T07:53:38.987Z,79.90
2017-09-19T07:56:06.612Z,79.80
2017-09-19T07:58:34.198Z,79.50
2017-09-19T08:01:01.833Z,80.40
2017-09-19T08:03:29.519Z,80.30
2017-09-19T08:05:57.242Z,80.10
2017-09-19T08:08:24.826Z,78.90
2017-09-19T08:10:52.462Z,78.90
2017-09-19T08:13:20.052Z,78.90
2017-09-19T08:15:47.661Z,78.70
2017-09-19T08:18:15.227Z,78.70
2017-09-19T08:20:42.834Z,78.70
2017-09-19T08:23:11.193Z,79.20
2017-09-19T08:25:38.814Z,79.10
2017-09-19T08:28:06.534Z,79.00
2017-09-19T08:30:34.321Z,79.10
2017-09-19T08:33:02.816Z,78.60
2017-09-19T08:35:30.986Z,78.70
2017-09-19T08:37:58.740Z,78.50
2017-09-19T08:40:27.132Z,79.20
2017-09-19T08:42:54.749Z,79.20
2017-09-19T08:45:22.323Z,78.70
2017-09-19T08:47:56.718Z,78.20
2017-09-19T08:50:24.752Z,78.10
2017-09-19T08:52:52.385Z,78.20
2017-09-19T08:55:19.984Z,78.40
2017-09-19T08:57:47.598Z,78.40
2017-09-19T09:00:15.250Z,77.80
2017-09-19T09:02:44.703Z,77.40
2017-09-19T09:05:13.400Z,77.60
2017-09-19T09:07:42.147Z,77.60
2017-09-19T09:10:10.887Z,78.50
2017-09-19T09:12:38.993Z,78.50
2017-09-19T09:15:07.791Z,77.90
2017-09-19T09:17:37.309Z,78.10
2017-09-19T09:20:06.758Z,78.10
2017-09-19T09:22:35.419Z,76.90
2017-09-19T09:25:04.340Z,76.80
2017-09-19T09:27:32.678Z,77.50
2017-09-19T09:30:00.776Z,77.00
2017-09-19T09:32:29.560Z,76.60
2017-09-19T09:34:58.511Z,75.80
2017-09-19T09:37:27.463Z,75.30
2017-09-19T09:39:56.381Z,69.10
2017-09-19T09:42:25.090Z,69.60
2017-09-19T09:44:54.516Z,68.30
2017-09-19T09:47:22.153Z,67.90
2017-09-19T09:49:49.892Z,68.30
2017-09-19T09:52:17.481Z,69.20
2017-09-19T09:54:45.085Z,70.40
2017-09-19T09:57:12.658Z,70.90
2017-09-19T09:59:40.246Z,70.00
2017-09-19T10:02:19.912Z,70.80
2017-09-19T10:04:57.477Z,71.90
2017-09-19T10:07:26.312Z,71.60
2017-09-19T10:09:53.870Z,71.60
2017-09-19T10:12:22.268Z,72.30
2017-09-19T10:14:49.975Z,72.30
2017-09-19T10:17:17.945Z,73.10
2017-09-19T10:19:45.571Z,73.60
2017-09-19T10:22:13.345Z,74.40
2017-09-19T10:24:40.952Z,74.50
2017-09-19T10:27:09.300Z,72.70
2017-09-19T10:29:36.901Z,72.60
2017-09-19T10:32:05.362Z,73.30
2017-09-19T10:34:32.923Z,72.40
2017-09-19T10:37:00.546Z,71.20
2017-09-19T10:39:28.128Z,72.10
2017-09-19T10:41:55.763Z,73.20
2017-09-19T10:44:23.342Z,73.70
2017-09-19T10:46:50.913Z,74.10
2017-09-19T10:49:18.509Z,74.80
2017-09-19T10:51:46.083Z,74.40
2017-09-19T10:54:13.714Z,74.80
2017-09-19T10:56:41.348Z,75.10
2017-09-19T10:59:09.010Z,74.70
2017-09-19T11:01:36.610Z,74.40
2017-09-19T11:04:04.227Z,74.40
2017-09-19T11:06:31.838Z,74.00
2017-09-19T11:09:00.162Z,72.90
2017-09-19T11:11:27.938Z,72.80
2017-09-19T11:13:55.523Z,72.90
2017-09-19T11:16:25.958Z,73.10
2017-09-19T11:18:54.427Z,72.80
2017-09-19T11:21:22.146Z,72.70
2017-09-19T11:23:51.788Z,72.30
2017-09-19T11:26:19.353Z,72.60
2017-09-19T11:28:46.896Z,72.30
2017-09-19T11:31:14.489Z,71.60
2017-09-19T11:33:42.054Z,71.70
2017-09-19T11:36:09.681Z,72.00
2017-09-19T11:38:37.556Z,71.80
2017-09-19T11:41:05.190Z,71.30
2017-09-19T11:43:32.885Z,70.60
2017-09-19T11:46:00.675Z,71.40
2017-09-19T11:48:28.277Z,70.50
2017-09-19T11:51:01.907Z,68.50
2017-09-19T11:53:29.774Z,68.30
2017-09-19T11:55:57.445Z,68.10
2017-09-19T11:58:25.065Z,67.80
2017-09-19T12:00:52.688Z,65.00
2017-09-19T12:03:21.258Z,65.20
2017-09-19T12:05:49.677Z,63.20
2017-09-19T12:08:17.528Z,63.20
2017-09-19T12:10:45.975Z,63.40
2017-09-19T12:13:14.136Z,63.40
2017-09-19T12:15:41.765Z,62.70
2017-09-19T12:18:09.339Z,62.40
2017-09-19T12:20:36.969Z,61.70
2017-09-19T12:23:05.354Z,62.90
2017-09-19T12:25:32.929Z,62.90
2017-09-19T12:28:01.334Z,64.00
2017-09-19T12:30:29.673Z,63.20
2017-09-19T12:32:58.022Z,61.40
2017-09-19T12:35:25.648Z,61.30
2017-09-19T12:37:53.999Z,61.00
2017-09-19T12:40:21.606Z,60.90
2017-09-19T12:42:49.211Z,60.70
2017-09-19T12:45:16.839Z,60.20
2017-09-19T12:47:44.485Z,59.80
2017-09-19T12:50:12.062Z,60.40
2017-09-19T12:52:39.634Z,62.00
2017-09-19T12:55:08.647Z,61.80
2017-09-19T12:57:38.541Z,62.30
2017-09-19T13:00:09.733Z,62.30
2017-09-19T13:02:37.960Z,62.70
2017-09-19T13:05:06.446Z,60.90
2017-09-19T13:07:35.495Z,60.20
2017-09-19T13:10:03.083Z,59.10
2017-09-19T13:12:30.721Z,58.60
2017-09-19T13:14:58.332Z,60.10
2017-09-19T13:17:26.721Z,61.50
2017-09-19T13:19:55.072Z,62.60
2017-09-19T13:22:22.842Z,62.60
2017-09-19T13:24:50.913Z,63.30
2017-09-19T13:27:18.527Z,64.20
2017-09-19T13:29:47.820Z,64.20
2017-09-19T13:32:29.090Z,64.20
2017-09-19T13:34:58.256Z,63.00
2017-09-19T13:37:27.496Z,63.00
2017-09-19T13:39:56.209Z,62.20
2017-09-19T13:42:24.837Z,62.00
2017-09-19T13:44:54.130Z,63.40
2017-09-19T13:47:23.383Z,64.90
2017-09-19T13:49:52.112Z,64.80
2017-09-19T13:52:20.732Z,64.00
2017-09-19T13:54:49.096Z,63.80
2017-09-19T13:57:16.722Z,63.80
2017-09-19T13:59:45.838Z,63.70
2017-09-19T14:02:13.412Z,62.60
2017-09-19T14:04:41.810Z,63.80
2017-09-19T14:07:10.435Z,62.70
2017-09-19T14:09:38.835Z,62.90
2017-09-19T14:12:06.476Z,62.90
2017-09-19T14:14:34.098Z,62.40
2017-09-19T14:17:02.454Z,62.40
2017-09-19T14:19:30.021Z,62.40
2017-09-19T14:21:57.626Z,63.10
2017-09-19T14:24:25.221Z,62.30
2017-09-19T14:26:52.891Z,61.80
2017-09-19T14:29:20.487Z,60.90
2017-09-19T14:31:49.156Z,61.20
2017-09-19T14:34:16.745Z,61.10
2017-09-19T14:36:44.377Z,61.80
2017-09-19T14:39:12.052Z,62.90
2017-09-19T14:41:40.405Z,61.40
2017-09-19T14:44:08.040Z,61.30
2017-09-19T14:46:35.716Z,60.80
2017-09-19T14:49:03.345Z,61.80
2017-09-19T14:51:30.965Z,61.70
2017-09-19T14:53:59.531Z,61.90
2017-09-19T14:56:27.158Z,62.00
2017-09-19T14:58:54.769Z,61.50
2017-09-19T15:01:22.378Z,62.00
2017-09-19T15:03:49.986Z,61.40
2017-09-19T15:06:17.600Z,62.10
2017-09-19T15:08:45.234Z,58.90
2017-09-19T15:11:12.792Z,59.50
2017-09-19T15:13:41.178Z,60.60
2017-09-19T15:16:09.558Z,61.60
2017-09-19T15:18:37.894Z,60.40
2017-09-19T15:21:05.488Z,60.50
2017-09-19T15:23:33.149Z,59.80
2017-09-19T15:26:01.505Z,58.60
2017-09-19T15:28:29.081Z,58.50
2017-09-19T15:31:02.649Z,59.10
2017-09-19T15:33:30.312Z,58.30
2017-09-19T15:35:57.903Z,58.80
2017-09-19T15:38:25.553Z,58.10
2017-09-19T15:40:53.219Z,59.40
2017-09-19T15:43:20.786Z,59.90
2017-09-19T15:45:48.860Z,58.90
2017-09-19T15:48:16.507Z,59.40
2017-09-19T15:50:44.271Z,59.50
2017-09-19T15:53:11.923Z,60.20
2017-09-19T15:55:39.548Z,61.40
2017-09-19T15:58:07.278Z,61.80
2017-09-19T16:00:34.916Z,61.40
2017-09-19T16:03:02.534Z,61.60
2017-09-19T16:05:31.037Z,62.60
2017-09-19T16:07:58.796Z,62.60
2017-09-19T16:10:26.370Z,62.00
2017-09-19T16:12:53.984Z,62.30
2017-09-19T16:15:21.670Z,63.50
2017-09-19T16:17:50.053Z,64.90
2017-09-19T16:20:17.702Z,64.90
2017-09-19T16:22:46.093Z,64.70
2017-09-19T16:25:13.713Z,64.70
2017-09-19T16:27:41.274Z,65.40
2017-09-19T16:30:08.846Z,66.00
2017-09-19T16:32:36.453Z,66.80
2017-09-19T16:35:04.007Z,66.50
2017-09-19T16:37:31.577Z,66.20
2017-09-19T16:39:59.254Z,66.40
2017-09-19T16:42:26.856Z,66.70
2017-09-19T16:44:54.457Z,67.10
2017-09-19T16:47:22.019Z,67.60
2017-09-19T16:49:49.583Z,67.90
2017-09-19T16:52:17.194Z,67.90
2017-09-19T16:54:44.773Z,68.00
2017-09-19T16:57:13.114Z,68.00
2017-09-19T16:59:40.726Z,68.00
2017-09-19T17:02:10.074Z,68.70
2017-09-19T17:04:37.641Z,68.70
2017-09-19T17:07:05.240Z,69.40
2017-09-19T17:09:33.579Z,69.80
2017-09-19T17:12:01.153Z,69.80
2017-09-19T17:14:28.763Z,70.30
2017-09-19T17:16:56.377Z,70.60
2017-09-19T17:19:24.142Z,71.00
2017-09-19T17:21:51.786Z,71.70
2017-09-19T17:24:19.387Z,71.60
2017-09-19T17:26:47.754Z,71.50
2017-09-19T17:29:15.317Z,71.40
2017-09-19T17:31:42.927Z,71.20
2017-09-19T17:34:10.535Z,71.50
2017-09-19T17:36:40.500Z,72.20
2017-09-19T17:39:08.114Z,72.40
2017-09-19T17:41:35.703Z,72.40
2017-09-19T17:44:03.318Z,73.10
2017-09-19T17:46:31.016Z,72.70
2017-09-19T17:48:59.340Z,73.00
2017-09-19T17:51:26.923Z,73.00
2017-09-19T17:53:54.490Z,72.90
2017-09-19T17:56:22.081Z,73.40
2017-09-19T17:58:50.448Z,74.10
2017-09-19T18:01:18.871Z,74.60
2017-09-19T18:03:46.441Z,74.50
2017-09-19T18:06:14.046Z,74.70
2017-09-19T18:08:42.423Z,75.00
2017-09-19T18:11:10.765Z,75.20
2017-09-19T18:13:38.314Z,75.10
2017-09-19T18:16:05.918Z,75.40
2017-09-19T18:18:33.557Z,74.80
2017-09-19T18:21:01.110Z,75.50
2017-09-19T18:23:28.673Z,75.10
2017-09-19T18:25:56.269Z,75.40
2017-09-19T18:28:24.607Z,75.30
2017-09-19T18:30:52.202Z,75.20
2017-09-19T18:33:19.771Z,75.50
2017-09-19T18:35:48.134Z,76.10
2017-09-19T18:38:15.686Z,76.10
2017-09-19T18:40:43.293Z,76.20
2017-09-19T18:43:10.862Z,75.90
2017-09-19T18:45:38.422Z,75.70
2017-09-19T18:48:06.018Z,75.80
2017-09-19T18:50:33.575Z,76.10
2017-09-19T18:53:01.170Z,76.20
2017-09-19T18:55:29.533Z,76.50
2017-09-19T18:57:57.138Z,76.50
2017-09-19T19:00:24.738Z,76.60
2017-09-19T19:02:52.286Z,76.50
2017-09-19T19:05:19.886Z,76.40
2017-09-19T19:07:47.482Z,76.60
2017-09-19T19:10:15.038Z,76.70
2017-09-19T19:12:42.632Z,76.90
2017-09-19T19:15:10.247Z,77.10
2017-09-19T19:17:38.573Z,78.20
2017-09-19T19:20:06.179Z,78.10
2017-09-19T19:22:34.519Z,78.50
2017-09-19T19:25:02.150Z,78.50
2017-09-19T19:27:29.724Z,79.00
2017-09-19T19:29:57.296Z,78.60
2017-09-19T19:32:24.899Z,78.90
2017-09-19T19:34:53.265Z,79.10
2017-09-19T19:37:20.834Z,79.10
2017-09-19T19:39:48.428Z,78.70
2017-09-19T19:42:15.986Z,78.80
2017-09-19T19:44:43.597Z,79.00
2017-09-19T19:47:11.230Z,79.00
2017-09-19T19:49:38.804Z,79.00
2017-09-19T19:52:06.366Z,78.40
2017-09-19T19:54:33.962Z,78.70
2017-09-19T19:57:02.300Z,78.50
2017-09-19T19:59:29.896Z,78.40
2017-09-19T20:01:57.460Z,78.20
2017-09-19T20:04:25.050Z,78.60
2017-09-19T20:06:52.647Z,78.40
2017-09-19T20:09:20.197Z,78.40
2017-09-19T20:11:47.758Z,78.20
2017-09-19T20:14:16.126Z,78.60
2017-09-19T20:16:43.673Z,78.60
2017-09-19T20:19:11.258Z,78.80
2017-09-19T20:21:38.845Z,78.10
2017-09-19T20:24:06.445Z,78.20
2017-09-19T20:26:34.070Z,78.10
2017-09-19T20:29:01.646Z,78.30
2017-09-19T20:31:29.991Z,78.60
2017-09-19T20:33:57.589Z,78.60
2017-09-19T20:36:25.937Z,78.30
2017-09-19T20:38:53.529Z,78.20
2017-09-19T20:41:21.141Z,78.20
2017-09-19T20:43:48.703Z,79.00
2017-09-19T20:46:16.273Z,78.50
2017-09-19T20:48:43.872Z,78.60
2017-09-19T20:51:12.253Z,79.00
2017-09-19T20:53:40.582Z,78.80
2017-09-19T20:56:08.142Z,78.80
2017-09-19T20:58:35.747Z,78.40
2017-09-19T21:01:03.364Z,78.50
2017-09-19T21:03:36.536Z,78.50
2017-09-19T21:06:09.781Z,78.50
2017-09-19T21:08:43.037Z,77.90
2017-09-19T21:11:16.385Z,78.00
2017-09-19T21:13:49.572Z,77.70
2017-09-19T21:16:22.838Z,77.40
2017-09-19T21:18:56.087Z,78.40
2017-09-19T21:21:24.419Z,78.70
2017-09-19T21:23:51.987Z,78.70
2017-09-19T21:26:19.594Z,79.20
2017-09-19T21:28:47.145Z,78.80
2017-09-19T21:31:15.502Z,78.40
2017-09-19T21:36:25.054Z,78.10
2017-09-19T21:38:52.676Z,78.10
2017-09-19T21:41:20.229Z,78.50
2017-09-19T21:43:47.848Z,78.20
2017-09-19T21:46:15.418Z,78.10
2017-09-19T21:48:43.039Z,78.00
2017-09-19T21:51:11.376Z,78.50
2017-09-19T21:53:38.992Z,78.40
2017-09-19T21:56:07.312Z,78.40
2017-09-19T21:58:34.910Z,78.40
2017-09-19T22:01:02.483Z,78.10
2017-09-19T22:03:30.905Z,78.30
2017-09-19T22:05:58.473Z,78.20
2017-09-19T22:08:26.081Z,78.70
2017-09-19T22:10:54.470Z,79.10
2017-09-19T22:13:22.849Z,79.20
2017-09-19T22:15:51.190Z,78.70
2017-09-19T22:18:18.858Z,78.60
2017-09-19T22:20:46.486Z,78.70
2017-09-19T22:23:14.056Z,79.10
2017-09-19T22:25:41.614Z,79.30
2017-09-19T22:28:09.232Z,79.30
2017-09-19T22:30:37.556Z,78.90
2017-09-19T22:33:05.161Z,78.80
2017-09-19T22:35:33.531Z,79.20
2017-09-19T22:38:01.141Z,79.20
2017-09-19T22:40:28.721Z,79.00
2017-09-19T22:42:56.305Z,79.00
2017-09-19T22:45:23.917Z,79.20
2017-09-19T22:47:51.502Z,78.80
2017-09-19T22:50:19.094Z,79.20
2017-09-19T22:52:46.669Z,78.70
2017-09-19T22:55:15.065Z,78.10
2017-09-19T22:57:42.643Z,78.10
2017-09-19T23:00:10.204Z,78.00
2017-09-19T23:02:37.817Z,78.00
2017-09-19T23:05:05.398Z,77.90
2017-09-19T23:07:33.744Z,78.10
2017-09-19T23:10:01.359Z,78.10
2017-09-19T23:12:28.932Z,78.00
2017-09-19T23:14:56.566Z,77.90
2017-09-19T23:17:24.920Z,78.10
2017-09-19T23:19:52.562Z,78.10
2017-09-19T23:22:20.144Z,78.20
2017-09-19T23:24:47.694Z,77.90
2017-09-19T23:27:15.299Z,77.50
2017-09-19T23:29:43.627Z,78.00
2017-09-19T23:32:11.240Z,78.00
2017-09-19T23:34:39.620Z,78.10
2017-09-19T23:37:07.209Z,78.10
2017-09-19T23:39:35.569Z,78.10
2017-09-19T23:42:03.170Z,78.10
2017-09-19T23:44:30.770Z,77.70
2017-09-19T23:46:59.103Z,77.80
2017-09-19T23:49:26.707Z,77.80
2017-09-19T23:51:55.088Z,78.40
2017-09-19T23:54:23.417Z,78.60
2017-09-19T23:56:51.022Z,78.60
2017-09-19T23:59:19.357Z,78.70
